This is the latest recevied weather packets stored in our database for station/object SP9WPN-12. If no packets are shown the sender has not sent any weather packets the latest 10 day(s).
| Time | Temp. | Humidity | Pressure | Rain* | Wind** | Luminosity | Snow |
|---|---|---|---|---|---|---|---|
| 1777479541 | 8.33° C | 40% | 1029.3 hPa | - | - | - | - |
| 1777478943 | 7.78° C | 40% | 1029.4 hPa | - | - | - | - |
| 1777477748 | 7.22° C | 41% | 1029.3 hPa | - | - | - | - |
| 1777477150 | 8.89° C | 37% | 1029 hPa | - | - | - | - |
| 1777475955 | 8.89° C | 36% | 1028.9 hPa | - | - | - | - |
| 1777472369 | 10° C | 34% | 1028.5 hPa | - | - | - | - |
| 1777471174 | 11.11° C | 30% | 1028 hPa | - | - | - | - |
| 1777469381 | 10.56° C | 31% | 1027.9 hPa | - | - | - | - |
| 1777468783 | 10.56° C | 30% | 1027.8 hPa | - | - | - | - |
| 1777468185 | 9.44° C | 31% | 1027.9 hPa | - | - | - | - |
| 1777466991 | 11.11° C | 28% | 1027.6 hPa | - | - | - | - |
| 1777465795 | 11.11° C | 25% | 1027.6 hPa | - | - | - | - |
| 1777465197 | 11.67° C | 24% | 1027.7 hPa | - | - | - | - |
| 1777464600 | 12.22° C | 24% | 1027.5 hPa | - | - | - | - |
| 1777462809 | 12.22° C | 24% | 1027.2 hPa | - | - | - | - |
| 1777462212 | 12.22° C | 23% | 1027.2 hPa | - | - | - | - |
| 1777461614 | 12.22° C | 23% | 1027.2 hPa | - | - | - | - |
| 1777459223 | 12.22° C | 27% | 1027.3 hPa | - | - | - | - |
| 1777458625 | 10° C | 29% | 1027.6 hPa | - | - | - | - |
| 1777458027 | 8.89° C | 33% | 1027.7 hPa | - | - | - | - |
| 1777457429 | 11.11° C | 32% | 1027.4 hPa | - | - | - | - |
| 1777455636 | 9.44° C | 37% | 1027.8 hPa | - | - | - | - |
| 1777455038 | 11.11° C | 34% | 1027.5 hPa | - | - | - | - |
| 1777454440 | 10° C | 37% | 1027.6 hPa | - | - | - | - |
| 1777453843 | 11.67° C | 36% | 1027.4 hPa | - | - | - | - |
* Rain since midnight (hover to see other rain measurements)
** Current wind speed in m/s (hover to see current wind gust speed)